Pagrindinis puslapis
METAR-TAF:

METAR-TAF

Oro uostai :

Čiklajas, Peru

platuma: 06-47S, ilguma: 079-50W, Aukštis: 29 m

Dabartinis oras

Ataskaita buvo paskelbta 55 minutes, ne 17:00 UTC
Vėjas 15 kt iš Pietų
Temperatūra 28°C
Drėgmė 51%
Slėgis 1012 hPa
Matomumas 10 km arba daugiau
nėra debesų žemiau 1500 m ir nėra kamuolinių lietaus debesų

METAR: SPHI 071700Z 18015KT CAVOK 28/17 Q1012 RMK BIRD HAZARD RWY 19/01 PP000

Laikas: 12:55 (17:55 UTC)

Prognozė

Ataskaita buvo paskelbta 6 valandos ir 55 minutes, ne 11:00 UTC
Prognozė galioja nuo 07 metu 12 UTC su 08 metu 12 UTC
Vėjas 10 kt iš Pietų
Matomumas 10 km arba daugiau
nėra debesų žemiau 1500 m ir nėra kamuolinių lietaus debesų
Tapsmas
nuo 07 metu 16 UTC su 07 metu 18 UTC
Vėjas 18 kt iš Pietų
Tapsmas
nuo 08 metu 03 UTC su 08 metu 05 UTC
Vėjas 10 kt iš Pietų

TAF: SPHI 071100Z 0712/0812 17010KT CAVOK TX30/0719Z TN21/0811Z BECMG 0716/0718 17018KT BECMG 0803/0805 18010KT

Orai ataskaitas ir orų prognozės (METAR, TAF).

turimą stotys yra geltonos ir raudonos taškus žemėlapyje.

Perkelti pele per norėdami pamatyti stoties vardą.

Tada spustelėkite, norėdami matyti oro stebėjimo ir prognozės.

Norėdami pakeisti žemėlapį: spustelėkite ant žalios mygtukų su juodo kryžiaus žemyn,; žalią mygtuką su brūkšneliu, jei norite nutolinti; arba žalių rodyklių gretimoms žemėlapius.


METAR-TAF: